Main page
METAR-TAF:

METAR-TAF

Airports :

Eleusina, Greece

latitude: 38-04N, longitude: 023-33E, elevation: 44 m

Current weather observation

The report was made 32 minutes ago, at 09:50 UTC
Wind 8 kt from the North
Temperature 33°C
Humidity 36%
Pressure 1006 hPa
Visibility 10 km or more
Scattered clouds at a height of 2500 ft

METAR: LGEL 180950Z 35008KT 9999 SCT025 33/16 Q1006

Time: 13:22 (10:22 UTC)

Forecast

The report was made 5 hours and 22 minutes ago, at 05:00 UTC
Forecast valid from 18 at 06 UTC to 19 at 06 UTC
Wind 10 kt from the North/Northwest
Visibility 10 km or more
Few clouds at a height of 2500 ft
Becoming
from 18 at 16 UTC to 18 at 18 UTC
Wind 5 kt from variable directions

TAF: LGEL 180500Z 1806/1906 34010KT 9999 FEW025 BECMG 1816/1818 VRB05KT

Weather observations and forecasts of more than 4000 airports (METAR and TAF reports).

The available stations are represented by yellow and red dots on the map.

Hover mouse over dot to see the name of the station.

Then click to see weather observations and forecasts.

To change the map : click on the green buttons with a black cross to zoom in, on the green button with a dash to zoom out, or on the green arrows for adjacent maps.


METAR-TAF: